sensor_id;sensor_type;location;lat;lon;timestamp;P1;durP1;ratioP1;P2;durP2;ratioP2
73168;SDS011;61379;59.732;30.468;2024-02-15T00:02:17;8.20;;;7.40;;
73168;SDS011;61379;59.732;30.468;2024-02-15T00:04:44;9.63;;;8.25;;
73168;SDS011;61379;59.732;30.468;2024-02-15T00:07:11;13.68;;;9.90;;
73168;SDS011;61379;59.732;30.468;2024-02-15T00:09:38;8.90;;;8.00;;
73168;SDS011;61379;59.732;30.468;2024-02-15T00:12:05;9.75;;;7.07;;
73168;SDS011;61379;59.732;30.468;2024-02-15T00:14:33;7.30;;;6.40;;
73168;SDS011;61379;59.732;30.468;2024-02-15T00:17:01;12.30;;;7.97;;
73168;SDS011;61379;59.732;30.468;2024-02-15T00:19:29;12.98;;;8.35;;
73168;SDS011;61379;59.732;30.468;2024-02-15T00:21:56;7.63;;;6.75;;
73168;SDS011;61379;59.732;30.468;2024-02-15T00:24:23;6.63;;;5.95;;
73168;SDS011;61379;59.732;30.468;2024-02-15T00:26:50;10.30;;;7.57;;
73168;SDS011;61379;59.732;30.468;2024-02-15T00:29:18;8.20;;;6.30;;
73168;SDS011;61379;59.732;30.468;2024-02-15T00:31:45;7.30;;;6.57;;
73168;SDS011;61379;59.732;30.468;2024-02-15T00:34:13;10.05;;;8.10;;
73168;SDS011;61379;59.732;30.468;2024-02-15T00:36:41;10.75;;;7.40;;
73168;SDS011;61379;59.732;30.468;2024-02-15T00:39:07;11.27;;;7.53;;
73168;SDS011;61379;59.732;30.468;2024-02-15T00:41:34;7.50;;;6.90;;
73168;SDS011;61379;59.732;30.468;2024-02-15T00:44:01;9.43;;;6.78;;
73168;SDS011;61379;59.732;30.468;2024-02-15T00:46:31;9.30;;;7.60;;
73168;SDS011;61379;59.732;30.468;2024-02-15T00:49:21;8.75;;;7.32;;
73168;SDS011;61379;59.732;30.468;2024-02-15T00:51:48;9.88;;;7.18;;
73168;SDS011;61379;59.732;30.468;2024-02-15T00:54:17;8.57;;;5.20;;
73168;SDS011;61379;59.732;30.468;2024-02-15T00:56:58;11.35;;;7.97;;
73168;SDS011;61379;59.732;30.468;2024-02-15T00:59:24;12.57;;;8.32;;
73168;SDS011;61379;59.732;30.468;2024-02-15T01:01:51;13.48;;;8.35;;
73168;SDS011;61379;59.732;30.468;2024-02-15T01:04:18;7.75;;;6.95;;
73168;SDS011;61379;59.732;30.468;2024-02-15T01:06:47;9.38;;;7.30;;
73168;SDS011;61379;59.732;30.468;2024-02-15T01:09:15;10.52;;;7.43;;
73168;SDS011;61379;59.732;30.468;2024-02-15T01:11:42;10.18;;;8.05;;
73168;SDS011;61379;59.732;30.468;2024-02-15T01:14:09;7.85;;;6.88;;
73168;SDS011;61379;59.732;30.468;2024-02-15T01:16:36;12.30;;;7.13;;
73168;SDS011;61379;59.732;30.468;2024-02-15T01:19:03;9.68;;;7.70;;
73168;SDS011;61379;59.732;30.468;2024-02-15T01:21:30;9.57;;;7.50;;
73168;SDS011;61379;59.732;30.468;2024-02-15T01:24:00;12.90;;;8.13;;
73168;SDS011;61379;59.732;30.468;2024-02-15T01:26:29;7.35;;;6.60;;
73168;SDS011;61379;59.732;30.468;2024-02-15T01:28:56;10.93;;;8.43;;
73168;SDS011;61379;59.732;30.468;2024-02-15T01:31:29;11.38;;;8.27;;
73168;SDS011;61379;59.732;30.468;2024-02-15T01:33:56;10.82;;;8.60;;
73168;SDS011;61379;59.732;30.468;2024-02-15T01:36:23;15.98;;;8.82;;
73168;SDS011;61379;59.732;30.468;2024-02-15T01:38:50;11.90;;;8.10;;
73168;SDS011;61379;59.732;30.468;2024-02-15T01:41:19;9.90;;;7.90;;
73168;SDS011;61379;59.732;30.468;2024-02-15T01:43:45;10.10;;;8.07;;
73168;SDS011;61379;59.732;30.468;2024-02-15T01:46:13;10.27;;;8.18;;
73168;SDS011;61379;59.732;30.468;2024-02-15T01:48:41;8.30;;;6.75;;
73168;SDS011;61379;59.732;30.468;2024-02-15T01:51:08;9.23;;;7.07;;
73168;SDS011;61379;59.732;30.468;2024-02-15T01:53:36;10.07;;;8.10;;
73168;SDS011;61379;59.732;30.468;2024-02-15T01:56:04;8.38;;;6.65;;
73168;SDS011;61379;59.732;30.468;2024-02-15T01:58:32;14.48;;;8.13;;
73168;SDS011;61379;59.732;30.468;2024-02-15T02:01:00;13.93;;;9.27;;
73168;SDS011;61379;59.732;30.468;2024-02-15T02:03:27;10.35;;;7.43;;
73168;SDS011;61379;59.732;30.468;2024-02-15T02:05:55;13.15;;;7.60;;
73168;SDS011;61379;59.732;30.468;2024-02-15T02:08:22;7.78;;;7.07;;
73168;SDS011;61379;59.732;30.468;2024-02-15T02:10:49;17.65;;;8.98;;
73168;SDS011;61379;59.732;30.468;2024-02-15T02:13:16;15.30;;;9.60;;
73168;SDS011;61379;59.732;30.468;2024-02-15T02:15:45;9.52;;;7.85;;
73168;SDS011;61379;59.732;30.468;2024-02-15T02:18:12;9.95;;;7.57;;
73168;SDS011;61379;59.732;30.468;2024-02-15T02:20:39;11.27;;;8.35;;
73168;SDS011;61379;59.732;30.468;2024-02-15T02:23:07;8.93;;;7.07;;
73168;SDS011;61379;59.732;30.468;2024-02-15T02:25:37;16.90;;;8.48;;
73168;SDS011;61379;59.732;30.468;2024-02-15T02:28:04;12.75;;;9.07;;
73168;SDS011;61379;59.732;30.468;2024-02-15T02:30:31;14.75;;;9.60;;
73168;SDS011;61379;59.732;30.468;2024-02-15T02:32:58;13.50;;;8.63;;
73168;SDS011;61379;59.732;30.468;2024-02-15T02:35:25;8.63;;;7.70;;
73168;SDS011;61379;59.732;30.468;2024-02-15T02:37:53;9.85;;;8.55;;
73168;SDS011;61379;59.732;30.468;2024-02-15T02:40:20;12.70;;;9.27;;
73168;SDS011;61379;59.732;30.468;2024-02-15T02:42:49;10.70;;;8.40;;
73168;SDS011;61379;59.732;30.468;2024-02-15T02:45:17;9.07;;;8.18;;
73168;SDS011;61379;59.732;30.468;2024-02-15T02:47:45;9.73;;;8.70;;
73168;SDS011;61379;59.732;30.468;2024-02-15T02:50:13;12.15;;;8.52;;
73168;SDS011;61379;59.732;30.468;2024-02-15T02:52:40;13.98;;;9.98;;
73168;SDS011;61379;59.732;30.468;2024-02-15T02:55:07;12.70;;;7.88;;
73168;SDS011;61379;59.732;30.468;2024-02-15T02:57:34;12.23;;;8.73;;
73168;SDS011;61379;59.732;30.468;2024-02-15T03:00:04;8.57;;;7.65;;
73168;SDS011;61379;59.732;30.468;2024-02-15T03:02:34;13.93;;;9.07;;
73168;SDS011;61379;59.732;30.468;2024-02-15T03:05:01;7.80;;;7.00;;
73168;SDS011;61379;59.732;30.468;2024-02-15T03:07:32;16.13;;;9.38;;
73168;SDS011;61379;59.732;30.468;2024-02-15T03:09:59;10.68;;;9.10;;
73168;SDS011;61379;59.732;30.468;2024-02-15T03:12:26;14.80;;;10.10;;
73168;SDS011;61379;59.732;30.468;2024-02-15T03:14:54;12.60;;;10.30;;
73168;SDS011;61379;59.732;30.468;2024-02-15T03:17:23;11.75;;;7.93;;
73168;SDS011;61379;59.732;30.468;2024-02-15T03:19:50;10.73;;;9.52;;
73168;SDS011;61379;59.732;30.468;2024-02-15T03:22:17;9.52;;;8.40;;
73168;SDS011;61379;59.732;30.468;2024-02-15T03:24:44;10.25;;;8.88;;
73168;SDS011;61379;59.732;30.468;2024-02-15T03:27:10;13.07;;;9.85;;
73168;SDS011;61379;59.732;30.468;2024-02-15T03:29:38;17.83;;;9.52;;
73168;SDS011;61379;59.732;30.468;2024-02-15T03:32:05;11.90;;;9.48;;
73168;SDS011;61379;59.732;30.468;2024-02-15T03:34:34;12.27;;;10.85;;
73168;SDS011;61379;59.732;30.468;2024-02-15T03:37:01;12.77;;;10.20;;
73168;SDS011;61379;59.732;30.468;2024-02-15T03:39:29;13.45;;;7.97;;
73168;SDS011;61379;59.732;30.468;2024-02-15T03:41:58;12.82;;;9.70;;
73168;SDS011;61379;59.732;30.468;2024-02-15T03:44:25;9.23;;;7.63;;
73168;SDS011;61379;59.732;30.468;2024-02-15T03:46:52;17.45;;;9.35;;
73168;SDS011;61379;59.732;30.468;2024-02-15T03:49:20;9.43;;;8.48;;
73168;SDS011;61379;59.732;30.468;2024-02-15T03:51:49;14.45;;;9.35;;
73168;SDS011;61379;59.732;30.468;2024-02-15T03:54:16;12.55;;;9.05;;
73168;SDS011;61379;59.732;30.468;2024-02-15T03:56:46;9.40;;;7.68;;
73168;SDS011;61379;59.732;30.468;2024-02-15T03:59:18;9.88;;;8.65;;
73168;SDS011;61379;59.732;30.468;2024-02-15T04:01:50;11.55;;;9.02;;
73168;SDS011;61379;59.732;30.468;2024-02-15T04:04:17;14.27;;;10.02;;
73168;SDS011;61379;59.732;30.468;2024-02-15T04:06:46;13.55;;;9.75;;
73168;SDS011;61379;59.732;30.468;2024-02-15T04:09:14;14.07;;;8.90;;
73168;SDS011;61379;59.732;30.468;2024-02-15T04:11:42;17.55;;;9.82;;
73168;SDS011;61379;59.732;30.468;2024-02-15T04:14:09;13.45;;;8.45;;
73168;SDS011;61379;59.732;30.468;2024-02-15T04:16:36;12.23;;;8.52;;
73168;SDS011;61379;59.732;30.468;2024-02-15T04:19:03;10.45;;;8.73;;
73168;SDS011;61379;59.732;30.468;2024-02-15T04:21:30;10.30;;;8.40;;
73168;SDS011;61379;59.732;30.468;2024-02-15T04:23:57;16.20;;;9.20;;
73168;SDS011;61379;59.732;30.468;2024-02-15T04:26:26;11.43;;;8.95;;
73168;SDS011;61379;59.732;30.468;2024-02-15T04:28:55;15.77;;;11.10;;
73168;SDS011;61379;59.732;30.468;2024-02-15T04:31:22;8.82;;;8.07;;
73168;SDS011;61379;59.732;30.468;2024-02-15T04:33:52;10.45;;;8.70;;
73168;SDS011;61379;59.732;30.468;2024-02-15T04:36:28;13.88;;;8.98;;
73168;SDS011;61379;59.732;30.468;2024-02-15T04:39:11;16.80;;;11.80;;
73168;SDS011;61379;59.732;30.468;2024-02-15T04:41:50;16.45;;;11.35;;
73168;SDS011;61379;59.732;30.468;2024-02-15T04:44:17;11.90;;;8.90;;
73168;SDS011;61379;59.732;30.468;2024-02-15T04:46:45;17.50;;;10.38;;
73168;SDS011;61379;59.732;30.468;2024-02-15T04:49:12;15.68;;;11.30;;
73168;SDS011;61379;59.732;30.468;2024-02-15T04:51:39;10.88;;;9.38;;
73168;SDS011;61379;59.732;30.468;2024-02-15T04:54:06;15.73;;;10.80;;
73168;SDS011;61379;59.732;30.468;2024-02-15T04:56:33;14.57;;;9.30;;
73168;SDS011;61379;59.732;30.468;2024-02-15T04:59:02;12.60;;;10.07;;
73168;SDS011;61379;59.732;30.468;2024-02-15T05:01:29;13.32;;;8.15;;
73168;SDS011;61379;59.732;30.468;2024-02-15T05:03:58;15.55;;;9.77;;
73168;SDS011;61379;59.732;30.468;2024-02-15T05:06:25;16.42;;;10.93;;
73168;SDS011;61379;59.732;30.468;2024-02-15T05:08:54;14.90;;;10.82;;
73168;SDS011;61379;59.732;30.468;2024-02-15T05:11:22;15.10;;;10.40;;
73168;SDS011;61379;59.732;30.468;2024-02-15T05:13:49;14.18;;;9.23;;
73168;SDS011;61379;59.732;30.468;2024-02-15T05:16:17;11.02;;;9.20;;
73168;SDS011;61379;59.732;30.468;2024-02-15T05:18:45;12.45;;;9.73;;
73168;SDS011;61379;59.732;30.468;2024-02-15T05:21:11;13.80;;;10.80;;
73168;SDS011;61379;59.732;30.468;2024-02-15T05:23:38;10.98;;;9.65;;
73168;SDS011;61379;59.732;30.468;2024-02-15T05:26:07;12.30;;;10.20;;
73168;SDS011;61379;59.732;30.468;2024-02-15T05:28:34;12.85;;;10.77;;
73168;SDS011;61379;59.732;30.468;2024-02-15T05:31:10;19.73;;;10.45;;
73168;SDS011;61379;59.732;30.468;2024-02-15T05:33:39;18.05;;;10.80;;
73168;SDS011;61379;59.732;30.468;2024-02-15T05:36:09;12.77;;;8.30;;
73168;SDS011;61379;59.732;30.468;2024-02-15T05:38:36;13.68;;;9.68;;
73168;SDS011;61379;59.732;30.468;2024-02-15T05:41:03;11.88;;;10.00;;
73168;SDS011;61379;59.732;30.468;2024-02-15T05:43:31;19.17;;;12.18;;
73168;SDS011;61379;59.732;30.468;2024-02-15T05:45:58;19.63;;;11.77;;
73168;SDS011;61379;59.732;30.468;2024-02-15T05:48:26;16.75;;;9.98;;
73168;SDS011;61379;59.732;30.468;2024-02-15T05:50:54;16.05;;;11.30;;
73168;SDS011;61379;59.732;30.468;2024-02-15T05:53:22;13.02;;;10.18;;
73168;SDS011;61379;59.732;30.468;2024-02-15T05:55:49;10.70;;;9.65;;
73168;SDS011;61379;59.732;30.468;2024-02-15T05:58:16;12.70;;;9.70;;
73168;SDS011;61379;59.732;30.468;2024-02-15T06:00:43;17.65;;;9.13;;
73168;SDS011;61379;59.732;30.468;2024-02-15T06:03:09;12.57;;;8.55;;
73168;SDS011;61379;59.732;30.468;2024-02-15T06:05:38;11.45;;;9.18;;
73168;SDS011;61379;59.732;30.468;2024-02-15T06:08:06;16.42;;;9.30;;
73168;SDS011;61379;59.732;30.468;2024-02-15T06:10:33;12.73;;;9.35;;
73168;SDS011;61379;59.732;30.468;2024-02-15T06:13:00;16.50;;;9.82;;
73168;SDS011;61379;59.732;30.468;2024-02-15T06:15:26;11.68;;;9.02;;
73168;SDS011;61379;59.732;30.468;2024-02-15T06:17:55;16.05;;;9.75;;
73168;SDS011;61379;59.732;30.468;2024-02-15T06:20:23;10.27;;;8.50;;
73168;SDS011;61379;59.732;30.468;2024-02-15T06:22:52;10.82;;;8.57;;
73168;SDS011;61379;59.732;30.468;2024-02-15T06:25:20;15.77;;;9.13;;
73168;SDS011;61379;59.732;30.468;2024-02-15T06:27:47;13.77;;;10.02;;
73168;SDS011;61379;59.732;30.468;2024-02-15T06:30:14;9.90;;;8.75;;
73168;SDS011;61379;59.732;30.468;2024-02-15T06:32:58;11.20;;;6.65;;
73168;SDS011;61379;59.732;30.468;2024-02-15T06:35:42;15.77;;;10.15;;
73168;SDS011;61379;59.732;30.468;2024-02-15T06:38:29;17.73;;;10.15;;
73168;SDS011;61379;59.732;30.468;2024-02-15T06:41:15;9.80;;;8.93;;
73168;SDS011;61379;59.732;30.468;2024-02-15T06:43:42;16.75;;;11.27;;
73168;SDS011;61379;59.732;30.468;2024-02-15T06:46:11;22.67;;;12.63;;
73168;SDS011;61379;59.732;30.468;2024-02-15T06:48:41;11.00;;;9.90;;
73168;SDS011;61379;59.732;30.468;2024-02-15T06:51:11;16.48;;;10.60;;
73168;SDS011;61379;59.732;30.468;2024-02-15T06:53:39;13.55;;;10.38;;
73168;SDS011;61379;59.732;30.468;2024-02-15T06:56:08;13.70;;;9.35;;
73168;SDS011;61379;59.732;30.468;2024-02-15T06:58:36;10.70;;;7.85;;
73168;SDS011;61379;59.732;30.468;2024-02-15T07:01:03;13.32;;;8.60;;
73168;SDS011;61379;59.732;30.468;2024-02-15T07:03:30;14.50;;;10.32;;
73168;SDS011;61379;59.732;30.468;2024-02-15T07:06:09;21.60;;;11.57;;
73168;SDS011;61379;59.732;30.468;2024-02-15T07:08:36;10.95;;;8.93;;
73168;SDS011;61379;59.732;30.468;2024-02-15T07:11:02;17.15;;;10.15;;
73168;SDS011;61379;59.732;30.468;2024-02-15T07:13:29;18.70;;;10.90;;
73168;SDS011;61379;59.732;30.468;2024-02-15T07:15:57;24.60;;;12.10;;
73168;SDS011;61379;59.732;30.468;2024-02-15T07:18:24;26.35;;;12.32;;
73168;SDS011;61379;59.732;30.468;2024-02-15T07:20:51;10.77;;;8.35;;
73168;SDS011;61379;59.732;30.468;2024-02-15T07:23:18;18.17;;;10.43;;
73168;SDS011;61379;59.732;30.468;2024-02-15T07:25:46;15.18;;;9.68;;
73168;SDS011;61379;59.732;30.468;2024-02-15T07:28:14;17.73;;;10.70;;
73168;SDS011;61379;59.732;30.468;2024-02-15T07:30:40;16.40;;;9.93;;
73168;SDS011;61379;59.732;30.468;2024-02-15T07:33:09;15.82;;;10.13;;
73168;SDS011;61379;59.732;30.468;2024-02-15T07:35:36;18.77;;;11.25;;
73168;SDS011;61379;59.732;30.468;2024-02-15T07:38:03;12.43;;;9.57;;
73168;SDS011;61379;59.732;30.468;2024-02-15T07:40:30;20.25;;;11.23;;
73168;SDS011;61379;59.732;30.468;2024-02-15T07:42:57;12.82;;;10.30;;
73168;SDS011;61379;59.732;30.468;2024-02-15T07:45:24;15.50;;;11.50;;
73168;SDS011;61379;59.732;30.468;2024-02-15T07:47:51;9.07;;;8.32;;
73168;SDS011;61379;59.732;30.468;2024-02-15T07:50:20;17.27;;;10.20;;
73168;SDS011;61379;59.732;30.468;2024-02-15T07:52:48;14.57;;;10.23;;
73168;SDS011;61379;59.732;30.468;2024-02-15T07:55:15;10.82;;;9.00;;
73168;SDS011;61379;59.732;30.468;2024-02-15T07:57:42;12.80;;;10.35;;
73168;SDS011;61379;59.732;30.468;2024-02-15T08:00:08;24.10;;;14.70;;
73168;SDS011;61379;59.732;30.468;2024-02-15T08:02:37;16.08;;;10.75;;
73168;SDS011;61379;59.732;30.468;2024-02-15T08:05:06;16.90;;;10.95;;
73168;SDS011;61379;59.732;30.468;2024-02-15T08:07:37;17.75;;;10.30;;
73168;SDS011;61379;59.732;30.468;2024-02-15T08:10:05;14.63;;;9.45;;
73168;SDS011;61379;59.732;30.468;2024-02-15T08:12:33;18.60;;;10.75;;
73168;SDS011;61379;59.732;30.468;2024-02-15T08:15:00;22.55;;;11.23;;
73168;SDS011;61379;59.732;30.468;2024-02-15T08:17:26;12.43;;;10.18;;
73168;SDS011;61379;59.732;30.468;2024-02-15T08:19:54;16.83;;;10.65;;
73168;SDS011;61379;59.732;30.468;2024-02-15T08:22:21;19.95;;;11.35;;
73168;SDS011;61379;59.732;30.468;2024-02-15T08:24:51;14.13;;;10.85;;
73168;SDS011;61379;59.732;30.468;2024-02-15T08:27:18;17.27;;;11.18;;
73168;SDS011;61379;59.732;30.468;2024-02-15T08:29:45;20.40;;;12.15;;
73168;SDS011;61379;59.732;30.468;2024-02-15T08:32:12;23.13;;;12.63;;
73168;SDS011;61379;59.732;30.468;2024-02-15T08:34:39;9.50;;;8.35;;
73168;SDS011;61379;59.732;30.468;2024-02-15T08:37:06;17.88;;;11.77;;
73168;SDS011;61379;59.732;30.468;2024-02-15T08:39:33;21.23;;;11.00;;
73168;SDS011;61379;59.732;30.468;2024-02-15T08:42:01;16.70;;;11.25;;
73168;SDS011;61379;59.732;30.468;2024-02-15T08:44:29;15.70;;;10.77;;
73168;SDS011;61379;59.732;30.468;2024-02-15T08:46:56;16.25;;;10.80;;
73168;SDS011;61379;59.732;30.468;2024-02-15T08:49:23;14.57;;;10.82;;
73168;SDS011;61379;59.732;30.468;2024-02-15T08:51:50;15.77;;;11.75;;
73168;SDS011;61379;59.732;30.468;2024-02-15T08:54:17;17.35;;;10.77;;
73168;SDS011;61379;59.732;30.468;2024-02-15T08:56:45;14.40;;;11.23;;
73168;SDS011;61379;59.732;30.468;2024-02-15T08:59:13;16.67;;;11.35;;
73168;SDS011;61379;59.732;30.468;2024-02-15T09:01:42;16.50;;;10.85;;
73168;SDS011;61379;59.732;30.468;2024-02-15T09:04:11;20.83;;;11.60;;
73168;SDS011;61379;59.732;30.468;2024-02-15T09:06:38;18.05;;;10.65;;
73168;SDS011;61379;59.732;30.468;2024-02-15T09:09:04;25.02;;;12.20;;
73168;SDS011;61379;59.732;30.468;2024-02-15T09:11:31;19.83;;;11.65;;
73168;SDS011;61379;59.732;30.468;2024-02-15T09:17:01;17.48;;;10.30;;
73168;SDS011;61379;59.732;30.468;2024-02-15T09:19:32;21.27;;;11.35;;
73168;SDS011;61379;59.732;30.468;2024-02-15T09:21:59;18.08;;;11.18;;
73168;SDS011;61379;59.732;30.468;2024-02-15T09:24:25;16.25;;;10.88;;
73168;SDS011;61379;59.732;30.468;2024-02-15T09:26:52;20.52;;;13.20;;
73168;SDS011;61379;59.732;30.468;2024-02-15T09:29:19;17.60;;;9.57;;
73168;SDS011;61379;59.732;30.468;2024-02-15T09:31:46;17.05;;;10.98;;
73168;SDS011;61379;59.732;30.468;2024-02-15T09:37:15;14.52;;;10.23;;
73168;SDS011;61379;59.732;30.468;2024-02-15T09:39:51;22.60;;;11.82;;
73168;SDS011;61379;59.732;30.468;2024-02-15T09:42:18;11.30;;;7.82;;
73168;SDS011;61379;59.732;30.468;2024-02-15T09:44:45;11.68;;;8.90;;
73168;SDS011;61379;59.732;30.468;2024-02-15T09:47:12;21.38;;;12.02;;
73168;SDS011;61379;59.732;30.468;2024-02-15T09:49:40;17.38;;;10.73;;
73168;SDS011;61379;59.732;30.468;2024-02-15T09:52:07;15.98;;;10.23;;
73168;SDS011;61379;59.732;30.468;2024-02-15T09:54:39;15.85;;;11.40;;
73168;SDS011;61379;59.732;30.468;2024-02-15T09:57:08;16.45;;;11.32;;
73168;SDS011;61379;59.732;30.468;2024-02-15T09:59:35;24.30;;;12.23;;
73168;SDS011;61379;59.732;30.468;2024-02-15T10:02:07;14.48;;;9.93;;
73168;SDS011;61379;59.732;30.468;2024-02-15T10:04:39;18.80;;;11.38;;
73168;SDS011;61379;59.732;30.468;2024-02-15T10:07:07;14.45;;;9.60;;
73168;SDS011;61379;59.732;30.468;2024-02-15T10:09:34;16.90;;;11.20;;
73168;SDS011;61379;59.732;30.468;2024-02-15T10:12:03;16.00;;;10.40;;
73168;SDS011;61379;59.732;30.468;2024-02-15T10:14:32;17.02;;;11.38;;
73168;SDS011;61379;59.732;30.468;2024-02-15T10:17:05;15.00;;;11.10;;
73168;SDS011;61379;59.732;30.468;2024-02-15T10:19:32;17.77;;;10.25;;
73168;SDS011;61379;59.732;30.468;2024-02-15T10:22:05;12.82;;;10.65;;
73168;SDS011;61379;59.732;30.468;2024-02-15T10:24:33;14.00;;;10.40;;
73168;SDS011;61379;59.732;30.468;2024-02-15T10:27:08;16.55;;;10.80;;
73168;SDS011;61379;59.732;30.468;2024-02-15T10:29:35;21.42;;;12.35;;
73168;SDS011;61379;59.732;30.468;2024-02-15T10:32:03;18.55;;;12.00;;
73168;SDS011;61379;59.732;30.468;2024-02-15T10:34:36;16.40;;;11.63;;
73168;SDS011;61379;59.732;30.468;2024-02-15T10:37:10;13.43;;;11.20;;
73168;SDS011;61379;59.732;30.468;2024-02-15T10:39:37;20.05;;;11.48;;
73168;SDS011;61379;59.732;30.468;2024-02-15T10:42:06;16.27;;;11.02;;
73168;SDS011;61379;59.732;30.468;2024-02-15T10:44:34;18.70;;;11.15;;
73168;SDS011;61379;59.732;30.468;2024-02-15T10:47:01;17.00;;;11.32;;
73168;SDS011;61379;59.732;30.468;2024-02-15T10:49:32;15.77;;;11.32;;
73168;SDS011;61379;59.732;30.468;2024-02-15T10:52:00;19.23;;;11.93;;
73168;SDS011;61379;59.732;30.468;2024-02-15T11:00:13;27.15;;;14.27;;
73168;SDS011;61379;59.732;30.468;2024-02-15T11:02:48;17.35;;;10.40;;
73168;SDS011;61379;59.732;30.468;2024-02-15T11:05:17;16.88;;;10.80;;
73168;SDS011;61379;59.732;30.468;2024-02-15T11:07:49;22.90;;;11.45;;
73168;SDS011;61379;59.732;30.468;2024-02-15T11:10:25;21.80;;;11.73;;
73168;SDS011;61379;59.732;30.468;2024-02-15T11:12:52;19.88;;;11.63;;
73168;SDS011;61379;59.732;30.468;2024-02-15T11:18:06;22.77;;;13.38;;
73168;SDS011;61379;59.732;30.468;2024-02-15T11:20:45;17.48;;;11.18;;
73168;SDS011;61379;59.732;30.468;2024-02-15T11:23:13;21.02;;;11.98;;
73168;SDS011;61379;59.732;30.468;2024-02-15T11:25:49;14.77;;;11.55;;
73168;SDS011;61379;59.732;30.468;2024-02-15T11:31:04;17.48;;;12.27;;
73168;SDS011;61379;59.732;30.468;2024-02-15T11:33:34;20.55;;;11.85;;
73168;SDS011;61379;59.732;30.468;2024-02-15T11:36:03;19.98;;;12.15;;
73168;SDS011;61379;59.732;30.468;2024-02-15T11:38:31;21.23;;;12.07;;
73168;SDS011;61379;59.732;30.468;2024-02-15T11:41:01;22.33;;;13.95;;
73168;SDS011;61379;59.732;30.468;2024-02-15T11:46:28;16.23;;;10.73;;
73168;SDS011;61379;59.732;30.468;2024-02-15T11:49:03;16.23;;;11.40;;
73168;SDS011;61379;59.732;30.468;2024-02-15T11:51:31;18.95;;;11.80;;
73168;SDS011;61379;59.732;30.468;2024-02-15T11:54:05;19.02;;;11.90;;
73168;SDS011;61379;59.732;30.468;2024-02-15T11:56:33;20.20;;;12.48;;
73168;SDS011;61379;59.732;30.468;2024-02-15T11:59:17;18.92;;;12.30;;
73168;SDS011;61379;59.732;30.468;2024-02-15T12:01:54;20.20;;;12.10;;
73168;SDS011;61379;59.732;30.468;2024-02-15T12:04:39;22.50;;;12.13;;
73168;SDS011;61379;59.732;30.468;2024-02-15T12:07:24;19.75;;;12.25;;
73168;SDS011;61379;59.732;30.468;2024-02-15T12:10:14;19.75;;;11.85;;
73168;SDS011;61379;59.732;30.468;2024-02-15T12:12:59;17.83;;;11.45;;
73168;SDS011;61379;59.732;30.468;2024-02-15T12:15:54;21.10;;;12.50;;
73168;SDS011;61379;59.732;30.468;2024-02-15T12:18:42;18.88;;;13.73;;
73168;SDS011;61379;59.732;30.468;2024-02-15T12:21:11;19.48;;;12.15;;
73168;SDS011;61379;59.732;30.468;2024-02-15T12:23:39;19.52;;;11.50;;
73168;SDS011;61379;59.732;30.468;2024-02-15T12:26:06;19.10;;;12.75;;
73168;SDS011;61379;59.732;30.468;2024-02-15T12:28:38;19.77;;;12.68;;
73168;SDS011;61379;59.732;30.468;2024-02-15T12:31:10;17.10;;;12.13;;
73168;SDS011;61379;59.732;30.468;2024-02-15T12:33:38;13.50;;;11.13;;
73168;SDS011;61379;59.732;30.468;2024-02-15T12:36:05;16.42;;;12.25;;
73168;SDS011;61379;59.732;30.468;2024-02-15T12:38:40;17.58;;;10.65;;
73168;SDS011;61379;59.732;30.468;2024-02-15T12:41:29;20.48;;;12.75;;
73168;SDS011;61379;59.732;30.468;2024-02-15T12:43:57;21.30;;;11.82;;
73168;SDS011;61379;59.732;30.468;2024-02-15T12:46:23;21.95;;;10.30;;
73168;SDS011;61379;59.732;30.468;2024-02-15T12:49:05;23.58;;;12.57;;
73168;SDS011;61379;59.732;30.468;2024-02-15T12:51:32;16.05;;;10.48;;
73168;SDS011;61379;59.732;30.468;2024-02-15T12:54:09;19.00;;;11.75;;
73168;SDS011;61379;59.732;30.468;2024-02-15T12:56:36;16.00;;;12.18;;
73168;SDS011;61379;59.732;30.468;2024-02-15T12:59:04;18.58;;;11.65;;
73168;SDS011;61379;59.732;30.468;2024-02-15T13:01:31;20.10;;;11.85;;
73168;SDS011;61379;59.732;30.468;2024-02-15T13:03:59;20.33;;;10.00;;
73168;SDS011;61379;59.732;30.468;2024-02-15T13:06:26;25.42;;;12.45;;
73168;SDS011;61379;59.732;30.468;2024-02-15T13:08:54;17.95;;;11.07;;
73168;SDS011;61379;59.732;30.468;2024-02-15T13:11:22;19.33;;;11.27;;
73168;SDS011;61379;59.732;30.468;2024-02-15T13:13:51;22.38;;;11.82;;
73168;SDS011;61379;59.732;30.468;2024-02-15T13:16:19;19.80;;;10.63;;
73168;SDS011;61379;59.732;30.468;2024-02-15T13:18:48;19.63;;;12.05;;
73168;SDS011;61379;59.732;30.468;2024-02-15T13:21:15;18.15;;;11.70;;
73168;SDS011;61379;59.732;30.468;2024-02-15T13:23:42;16.20;;;10.23;;
73168;SDS011;61379;59.732;30.468;2024-02-15T13:26:09;22.52;;;11.57;;
73168;SDS011;61379;59.732;30.468;2024-02-15T13:28:38;25.27;;;13.70;;
73168;SDS011;61379;59.732;30.468;2024-02-15T13:31:05;21.23;;;12.95;;
73168;SDS011;61379;59.732;30.468;2024-02-15T13:33:32;29.48;;;13.27;;
73168;SDS011;61379;59.732;30.468;2024-02-15T13:35:59;25.45;;;11.45;;
73168;SDS011;61379;59.732;30.468;2024-02-15T13:38:27;21.13;;;11.07;;
73168;SDS011;61379;59.732;30.468;2024-02-15T13:40:53;18.40;;;11.75;;
73168;SDS011;61379;59.732;30.468;2024-02-15T13:43:21;20.85;;;13.13;;
73168;SDS011;61379;59.732;30.468;2024-02-15T13:45:57;19.63;;;12.70;;
73168;SDS011;61379;59.732;30.468;2024-02-15T13:48:25;12.88;;;9.85;;
73168;SDS011;61379;59.732;30.468;2024-02-15T13:50:55;22.55;;;12.70;;
73168;SDS011;61379;59.732;30.468;2024-02-15T13:53:21;24.52;;;11.77;;
73168;SDS011;61379;59.732;30.468;2024-02-15T13:55:49;17.70;;;11.32;;
73168;SDS011;61379;59.732;30.468;2024-02-15T13:58:17;18.92;;;10.55;;
73168;SDS011;61379;59.732;30.468;2024-02-15T14:00:44;26.92;;;11.43;;
73168;SDS011;61379;59.732;30.468;2024-02-15T14:03:12;22.63;;;12.48;;
73168;SDS011;61379;59.732;30.468;2024-02-15T14:05:40;19.65;;;11.05;;
73168;SDS011;61379;59.732;30.468;2024-02-15T14:08:07;23.48;;;11.75;;
73168;SDS011;61379;59.732;30.468;2024-02-15T14:10:36;15.75;;;10.98;;
73168;SDS011;61379;59.732;30.468;2024-02-15T14:13:03;20.92;;;11.38;;
73168;SDS011;61379;59.732;30.468;2024-02-15T14:15:31;21.98;;;11.38;;
73168;SDS011;61379;59.732;30.468;2024-02-15T14:17:59;19.17;;;11.95;;
73168;SDS011;61379;59.732;30.468;2024-02-15T14:20:28;21.75;;;11.43;;
73168;SDS011;61379;59.732;30.468;2024-02-15T14:22:54;19.73;;;11.35;;
73168;SDS011;61379;59.732;30.468;2024-02-15T14:25:21;17.45;;;11.77;;
73168;SDS011;61379;59.732;30.468;2024-02-15T14:27:48;17.17;;;10.93;;
73168;SDS011;61379;59.732;30.468;2024-02-15T14:30:15;22.67;;;12.00;;
73168;SDS011;61379;59.732;30.468;2024-02-15T14:33:11;21.15;;;12.18;;
73168;SDS011;61379;59.732;30.468;2024-02-15T14:35:42;18.98;;;11.35;;
73168;SDS011;61379;59.732;30.468;2024-02-15T14:38:09;16.10;;;9.25;;
73168;SDS011;61379;59.732;30.468;2024-02-15T14:40:37;15.55;;;10.75;;
73168;SDS011;61379;59.732;30.468;2024-02-15T14:43:06;13.40;;;9.82;;
73168;SDS011;61379;59.732;30.468;2024-02-15T14:45:49;17.45;;;11.43;;
73168;SDS011;61379;59.732;30.468;2024-02-15T14:48:16;12.68;;;7.93;;